Time;durP1;ratioP1;P1;durP2;ratioP2;P2;SDS_P1;SDS_P2;PMS_P1;PMS_P2;Temp;Humidity;BMP_temperature;BMP_pressure;BME280_temperature;BME280_humidity;BME280_pressure;Samples;Min_cycle;Max_cycle;Signal;HPM_P1;HPM_P2
2020/12/19 00:03:49;;;;;;;58.30;33.23;;;;;;;2.81;81.32;101142.56;2792626;85;21185;-62
2020/12/19 00:07:52;;;;;;;51.10;30.35;;;;;;;2.63;82.17;101147.99;2792460;85;21168;-61
2020/12/19 00:11:56;;;;;;;45.98;26.68;;;;;;;2.55;82.79;101144.31;2792555;85;21607;-61
2020/12/19 00:15:59;;;;;;;42.40;27.65;;;;;;;2.46;83.32;101144.64;2792232;85;21145;-61
2020/12/19 00:20:04;;;;;;;49.40;28.00;;;;;;;2.52;84.09;101145.73;2792210;85;21172;-62
2020/12/19 00:24:08;;;;;;;42.10;27.10;;;;;;;2.51;83.14;101134.83;2792453;85;21153;-61
2020/12/19 00:28:33;;;;;;;80.53;41.77;;;;;;;2.38;82.59;101131.33;2792006;84;21196;-61
2020/12/19 00:32:39;;;;;;;92.65;50.23;;;;;;;2.23;82.93;101129.22;2731404;87;21170;-61
2020/12/19 00:36:42;;;;;;;71.72;36.95;;;;;;;2.14;83.66;101125.97;2727427;86;21169;-61
2020/12/19 00:40:45;;;;;;;55.45;32.83;;;;;;;2.09;83.97;101122.64;2772937;85;21135;-60
2020/12/19 00:44:48;;;;;;;50.10;30.50;;;;;;;2.09;84.52;101113.94;2781744;85;21130;-61
2020/12/19 00:48:51;;;;;;;47.00;27.32;;;;;;;2.18;84.48;101119.33;2781876;85;21583;-61
2020/12/19 00:52:54;;;;;;;50.40;26.17;;;;;;;2.31;84.49;101111.89;2781993;85;21821;-61
2020/12/19 00:56:57;;;;;;;40.05;25.02;;;;;;;2.45;84.13;101125.39;2781968;85;21162;-60
2020/12/19 01:01:00;;;;;;;41.15;25.80;;;;;;;2.61;84.07;101121.80;2781905;85;21186;-61
2020/12/19 01:05:07;;;;;;;51.33;26.80;;;;;;;2.75;83.98;101129.18;2781902;85;21178;-60
2020/12/19 01:09:11;;;;;;;40.17;22.70;;;;;;;2.86;83.62;101118.28;2781779;85;21158;-61
2020/12/19 01:13:14;;;;;;;47.73;29.70;;;;;;;2.95;83.28;101117.97;2781986;85;21123;-60
2020/12/19 01:17:17;;;;;;;44.08;28.07;;;;;;;3.02;83.07;101114.63;2781669;85;21184;-61
2020/12/19 01:21:24;;;;;;;44.95;26.62;;;;;;;3.03;82.75;101107.61;2781709;85;21159;-63
2020/12/19 01:25:27;;;;;;;46.73;29.20;;;;;;;2.99;82.43;101110.36;2781500;84;21163;-62
2020/12/19 01:29:30;;;;;;;48.87;30.75;;;;;;;2.93;82.48;101106.62;2783537;84;21173;-61
2020/12/19 01:33:34;;;;;;;52.08;32.65;;;;;;;2.95;82.66;101096.94;2785231;85;21142;-62
2020/12/19 01:37:37;;;;;;;51.45;31.00;;;;;;;2.93;82.18;101098.73;2785252;85;21640;-60
2020/12/19 01:41:40;;;;;;;51.15;29.25;;;;;;;2.91;81.85;101099.73;2796243;84;21182;-60
2020/12/19 01:45:44;;;;;;;57.00;33.95;;;;;;;2.84;82.05;101097.30;2813082;84;21499;-61
2020/12/19 01:49:47;;;;;;;61.48;39.20;;;;;;;2.83;81.62;101096.06;2812679;84;21186;-60
2020/12/19 01:53:52;;;;;;;56.35;34.98;;;;;;;2.77;81.54;101093.19;2812701;84;21162;-62
2020/12/19 01:57:55;;;;;;;52.13;30.25;;;;;;;2.69;81.82;101090.84;2812982;83;21165;-61
2020/12/19 02:02:07;;;;;;;54.60;32.30;;;;;;;2.65;81.92;101085.30;2812567;84;21162;-61
2020/12/19 02:06:14;;;;;;;57.30;34.60;;;;;;;2.64;81.91;101083.59;2812690;84;21173;-62
2020/12/19 02:10:16;;;;;;;48.55;30.57;;;;;;;2.61;81.97;101078.89;2812604;83;21098;-61
2020/12/19 02:14:20;;;;;;;50.88;33.55;;;;;;;2.59;82.24;101070.21;2812820;84;21592;-61
2020/12/19 02:18:23;;;;;;;57.48;31.07;;;;;;;2.60;82.27;101063.60;2812998;83;21138;-60
2020/12/19 02:22:25;;;;;;;51.23;34.33;;;;;;;2.56;82.19;101063.31;2812638;84;21649;-60
2020/12/19 02:26:28;;;;;;;43.55;27.42;;;;;;;2.54;82.00;101059.86;2812763;84;21169;-60
2020/12/19 02:30:34;;;;;;;46.48;28.73;;;;;;;2.47;82.15;101061.00;2820065;84;21200;-61
2020/12/19 02:34:37;;;;;;;44.63;28.43;;;;;;;2.47;82.42;101067.13;2833866;83;21118;-62
2020/12/19 02:38:40;;;;;;;38.75;24.20;;;;;;;2.46;82.31;101067.17;2834433;83;21121;-62
2020/12/19 02:42:43;;;;;;;44.88;25.77;;;;;;;2.42;82.28;101066.41;2834141;84;21145;-61
2020/12/19 02:46:48;;;;;;;40.43;26.68;;;;;;;2.40;82.21;101063.86;2834450;83;21177;-60
2020/12/19 02:50:52;;;;;;;36.35;20.30;;;;;;;2.36;82.25;101060.94;2833861;84;21612;-60
2020/12/19 02:54:55;;;;;;;36.20;23.15;;;;;;;2.32;82.32;101052.75;2833983;83;21094;-60
2020/12/19 02:58:58;;;;;;;50.03;22.77;;;;;;;2.25;82.52;101043.38;2833677;83;21612;-62
2020/12/19 03:03:01;;;;;;;42.67;24.25;;;;;;;2.17;82.51;101040.18;2833836;83;21644;-60
2020/12/19 03:07:04;;;;;;;44.63;26.35;;;;;;;2.13;82.58;101035.01;2833987;84;21624;-61
2020/12/19 03:11:08;;;;;;;34.92;22.35;;;;;;;2.10;82.50;101028.56;2833845;83;21165;-61
2020/12/19 03:15:13;;;;;;;41.13;28.27;;;;;;;2.10;82.49;101023.31;2833913;83;21149;-60
2020/12/19 03:19:16;;;;;;;42.08;27.42;;;;;;;2.04;82.43;101024.84;2833716;83;22280;-60
2020/12/19 03:23:21;;;;;;;33.95;24.45;;;;;;;2.02;82.92;101026.67;2834025;84;21136;-62
2020/12/19 03:27:45;;;;;;;38.95;27.50;;;;;;;2.03;82.91;101020.50;2834059;83;21600;-60
2020/12/19 03:31:48;;;;;;;45.20;28.12;;;;;;;2.04;82.59;101026.16;2644126;90;21173;-60
2020/12/19 03:35:52;;;;;;;41.40;23.38;;;;;;;1.97;82.61;101022.88;2671112;89;21144;-61
2020/12/19 03:39:55;;;;;;;36.33;24.47;;;;;;;1.90;82.62;101023.13;2671214;89;21171;-62
2020/12/19 03:43:58;;;;;;;30.57;22.32;;;;;;;1.79;82.82;101032.23;2714681;87;21165;-62
2020/12/19 03:48:01;;;;;;;35.38;22.40;;;;;;;1.71;83.18;101030.30;2708793;87;21164;-60
2020/12/19 03:52:04;;;;;;;36.60;24.70;;;;;;;1.65;83.61;101026.11;2708636;86;21651;-60
2020/12/19 03:56:08;;;;;;;27.17;18.85;;;;;;;1.63;83.77;101024.47;2708829;87;21177;-62
2020/12/19 04:00:11;;;;;;;37.73;23.52;;;;;;;1.55;83.94;101018.16;2708787;87;21905;-60
2020/12/19 04:04:14;;;;;;;31.70;19.52;;;;;;;1.54;84.11;101006.80;2708716;87;21156;-60
2020/12/19 04:08:19;;;;;;;31.17;22.07;;;;;;;1.50;84.17;101009.12;2707876;87;21161;-61
2020/12/19 04:12:22;;;;;;;28.47;18.67;;;;;;;1.46;84.41;101015.38;2708559;87;21664;-61
2020/12/19 04:34:13;;;;;;;28.70;17.35;;;;;;;1.83;85.58;101020.73;2864830;82;22942;-66
2020/12/19 04:38:18;;;;;;;29.00;18.25;;;;;;;1.86;85.10;101026.30;2803890;84;21142;-67
2020/12/19 04:42:23;;;;;;;28.47;17.32;;;;;;;1.81;84.84;101020.36;2797150;85;21189;-66
2020/12/19 04:46:29;;;;;;;28.40;18.95;;;;;;;1.74;84.72;101011.84;2797192;85;21149;-66
2020/12/19 04:50:32;;;;;;;30.05;19.98;;;;;;;1.62;84.80;101007.86;2797097;85;21153;-67
2020/12/19 04:54:39;;;;;;;26.65;20.35;;;;;;;1.49;85.02;101010.03;2796318;85;21169;-66
2020/12/19 04:58:41;;;;;;;;;;;;;;;1.41;85.27;101014.20;2799932;85;21134;-65
2020/12/19 05:02:46;;;;;;;29.82;20.57;;;;;;;1.39;85.53;101011.25;2719961;87;20190;-65
2020/12/19 05:06:50;;;;;;;33.08;19.62;;;;;;;1.38;85.55;101012.16;2689665;87;21208;-69
2020/12/19 05:10:54;;;;;;;22.42;16.80;;;;;;;1.34;85.70;101018.38;2769916;86;21186;-66
2020/12/19 05:14:57;;;;;;;27.98;17.57;;;;;;;1.35;85.83;101013.09;2769988;86;21178;-66
2020/12/19 05:19:14;;;;;;;24.50;18.40;;;;;;;1.35;85.92;101013.09;2769973;86;21174;-66
2020/12/19 05:23:19;;;;;;;25.85;16.55;;;;;;;1.38;85.85;101006.91;2736715;87;21174;-66
2020/12/19 05:27:23;;;;;;;31.55;21.05;;;;;;;1.41;85.81;101018.61;2713394;87;21170;-67
2020/12/19 05:31:27;;;;;;;27.55;16.82;;;;;;;1.42;85.79;101011.14;2743713;86;21146;-67
2020/12/19 05:35:34;;;;;;;30.23;19.73;;;;;;;1.42;85.76;101011.14;2713184;87;21189;-65
2020/12/19 05:39:54;;;;;;;33.88;18.48;;;;;;;1.42;85.77;101011.14;2757799;86;21638;-66
2020/12/19 05:43:57;;;;;;;30.75;23.27;;;;;;;1.41;85.82;101008.12;2738659;86;21180;-65
2020/12/19 05:48:02;;;;;;;30.00;20.05;;;;;;;1.38;85.95;101014.78;2738520;86;21187;-68
2020/12/19 05:52:09;;;;;;;29.18;20.00;;;;;;;1.42;85.96;101017.23;2738242;86;21209;-66
2020/12/19 05:56:12;;;;;;;;;;;;;;;1.45;86.22;101009.73;2741001;86;21133;-66
2020/12/19 06:00:17;;;;;;;26.02;16.15;;;;;;;1.49;85.99;101012.65;2738267;86;20165;-66
2020/12/19 06:04:20;;;;;;;27.77;18.37;;;;;;;1.49;85.96;101008.72;2738281;86;21180;-66
2020/12/19 06:08:25;;;;;;;33.45;21.77;;;;;;;1.48;86.08;101012.25;2715379;86;21161;-67
2020/12/19 06:13:14;;;;;;;31.62;20.85;;;;;;;1.50;86.15;101009.12;2738191;86;21212;-67
2020/12/19 06:17:40;;;;;;;39.50;22.17;;;;;;;1.53;85.96;101008.17;2738490;86;21157;-65
2020/12/19 06:21:51;;;;;;;35.00;22.02;;;;;;;1.55;85.95;101003.73;2738744;86;21169;-66
2020/12/19 06:43:45;;;;;;;25.57;16.48;;;;;;;2.06;85.96;100999.40;2987626;77;22783;-61
2020/12/19 06:47:49;;;;;;;24.15;19.12;;;;;;;2.13;85.27;101007.45;2928148;81;21124;-62
2020/12/19 06:52:11;;;;;;;27.25;18.52;;;;;;;2.22;84.82;101008.05;2935637;79;21130;-59
2020/12/19 06:56:31;;;;;;;27.67;19.82;;;;;;;2.26;84.50;101013.59;2936999;81;21106;-60
2020/12/19 07:00:35;;;;;;;30.68;20.57;;;;;;;2.23;84.13;101014.55;2884956;82;21608;-61
2020/12/19 07:04:42;;;;;;;41.48;24.32;;;;;;;2.14;83.82;101018.34;2870752;82;22179;-61
2020/12/19 07:08:47;;;;;;;35.92;25.02;;;;;;;2.12;83.94;101016.70;2884042;82;21156;-61
2020/12/19 07:12:52;;;;;;;35.20;25.75;;;;;;;2.11;84.04;101019.77;2880527;82;21160;-61
2020/12/19 07:16:57;;;;;;;44.80;29.90;;;;;;;2.09;84.02;101015.03;2883845;82;21172;-61
2020/12/19 07:21:08;;;;;;;41.23;33.33;;;;;;;2.10;84.11;101007.56;2883839;82;21235;-61
2020/12/19 07:25:11;;;;;;;133.47;88.65;;;;;;;2.09;83.92;101017.66;2881665;82;21176;-61
2020/12/19 07:29:19;;;;;;;108.60;64.60;;;;;;;2.07;84.04;101007.67;2854567;82;21179;-61
2020/12/19 07:33:22;;;;;;;55.08;35.30;;;;;;;1.97;84.09;101003.67;2846008;82;21741;-61
2020/12/19 07:37:27;;;;;;;173.05;107.50;;;;;;;1.92;85.04;101010.37;2874580;82;21200;-60
2020/12/19 07:41:30;;;;;;;203.30;99.00;;;;;;;1.94;85.57;101010.30;2870241;82;21190;-61
2020/12/19 07:45:34;;;;;;;305.10;188.15;;;;;;;2.02;85.74;101010.92;2883672;82;21164;-61
2020/12/19 07:49:45;;;;;;;111.08;60.60;;;;;;;2.10;85.90;101018.53;2883579;82;21161;-62
2020/12/19 07:53:48;;;;;;;391.17;222.12;;;;;;;2.24;85.71;101027.23;2880056;82;21213;-61
2020/12/19 07:57:54;;;;;;;178.75;82.40;;;;;;;2.32;85.63;101029.11;2847753;83;21169;-60
2020/12/19 08:02:03;;;;;;;;;;;;;;;2.41;85.50;101028.80;2850385;83;21161;-61
2020/12/19 08:06:06;;;;;;;60.43;32.98;;;;;;;2.46;85.28;101017.27;2831537;84;20196;-61
2020/12/19 08:10:13;;;;;;;56.42;31.30;;;;;;;2.46;85.56;101015.52;2831863;84;21148;-60
2020/12/19 08:14:21;;;;;;;60.28;36.10;;;;;;;2.47;85.81;101015.05;2831752;84;21624;-61
2020/12/19 08:18:25;;;;;;;131.20;71.53;;;;;;;2.54;86.04;101016.52;2831750;84;21173;-62
2020/12/19 08:22:31;;;;;;;112.37;54.33;;;;;;;2.63;86.03;101016.20;2798063;82;21162;-62
2020/12/19 08:26:35;;;;;;;100.62;52.23;;;;;;;2.70;85.88;101013.73;2787408;84;21588;-61
2020/12/19 08:30:41;;;;;;;154.23;83.70;;;;;;;2.82;85.95;101010.26;2868422;83;21151;-62
2020/12/19 08:34:44;;;;;;;83.20;46.40;;;;;;;2.91;86.06;101015.16;2886311;81;21169;-62
2020/12/19 08:38:49;;;;;;;218.10;97.67;;;;;;;3.04;85.72;101012.91;2916420;80;21156;-63
2020/12/19 08:42:54;;;;;;;233.60;113.15;;;;;;;3.21;86.00;101024.09;2920460;81;21156;-63
2020/12/19 08:47:06;;;;;;;90.45;46.33;;;;;;;3.45;85.76;101022.72;2927333;81;21129;-63
2020/12/19 08:51:14;;;;;;;54.55;30.75;;;;;;;3.56;84.86;101016.58;2927570;81;21144;-63
2020/12/19 08:55:23;;;;;;;56.53;31.55;;;;;;;3.57;84.78;101014.78;2905041;81;21156;-63
2020/12/19 08:59:28;;;;;;;74.53;45.73;;;;;;;3.66;84.92;101006.97;2820457;84;21170;-63
2020/12/19 09:03:34;;;;;;;61.00;36.88;;;;;;;3.71;85.16;101003.69;2820423;84;21214;-62
2020/12/19 09:07:39;;;;;;;40.12;24.07;;;;;;;3.89;85.54;101003.83;2826455;83;21161;-62
2020/12/19 09:11:42;;;;;;;46.95;28.17;;;;;;;4.10;85.56;100997.64;2865591;83;21137;-65
2020/12/19 09:15:48;;;;;;;70.45;32.25;;;;;;;4.32;85.35;100996.70;2866001;83;21165;-64
2020/12/19 09:20:05;;;;;;;74.60;39.35;;;;;;;4.52;85.39;100998.45;2866045;83;21173;-63
2020/12/19 09:24:12;;;;;;;76.35;40.40;;;;;;;4.73;85.48;101002.84;2857808;83;21171;-63
2020/12/19 09:28:16;;;;;;;70.40;37.58;;;;;;;4.99;85.13;101002.47;2820715;84;21160;-63
2020/12/19 09:32:20;;;;;;;55.00;28.17;;;;;;;5.21;84.58;100992.22;2821013;84;21141;-62
2020/12/19 09:36:25;;;;;;;69.12;31.68;;;;;;;5.41;84.00;100997.86;2821901;83;21179;-63
2020/12/19 09:40:29;;;;;;;22.82;13.58;;;;;;;5.61;83.42;100988.55;2821730;84;21163;-62
2020/12/19 09:44:32;;;;;;;80.65;43.95;;;;;;;5.79;82.78;100982.36;2811505;83;21120;-62
2020/12/19 09:48:35;;;;;;;21.73;13.53;;;;;;;5.93;82.22;100985.61;2810532;84;21175;-63
2020/12/19 09:52:40;;;;;;;57.62;31.10;;;;;;;6.00;82.01;100983.06;2806599;84;21131;-62
2020/12/19 09:56:44;;;;;;;32.33;18.05;;;;;;;6.13;81.94;100978.47;2850742;83;21129;-62
2020/12/19 10:00:48;;;;;;;12.70;9.73;;;;;;;6.22;81.48;100970.53;2859550;83;21130;-62
2020/12/19 10:04:52;;;;;;;11.55;7.80;;;;;;;6.35;80.83;100968.95;2859515;82;21114;-63
2020/12/19 10:08:55;;;;;;;10.58;6.47;;;;;;;6.45;80.58;100961.39;2846695;81;21095;-61
2020/12/19 10:12:58;;;;;;;7.45;5.40;;;;;;;6.49;79.72;100963.41;2811673;84;21147;-63
2020/12/19 10:17:02;;;;;;;7.72;5.37;;;;;;;6.50;79.61;100951.91;2811406;84;21123;-63
2020/12/19 10:21:11;;;;;;;10.32;7.30;;;;;;;6.54;79.04;100952.11;2811389;83;21115;-62
2020/12/19 10:25:14;;;;;;;5.30;4.80;;;;;;;6.57;79.06;100947.98;2839137;81;21141;-65
2020/12/19 10:29:17;;;;;;;4.58;4.17;;;;;;;6.59;78.91;100945.27;2859846;82;21114;-63
2020/12/19 10:33:21;;;;;;;9.53;6.37;;;;;;;6.63;78.97;100942.83;2858591;81;21203;-63
2020/12/19 10:37:24;;;;;;;8.25;6.92;;;;;;;6.73;78.59;100937.89;2824426;83;21139;-64
2020/12/19 10:41:28;;;;;;;7.70;6.50;;;;;;;6.78;78.51;100934.51;2809513;84;21207;-62
2020/12/19 10:45:32;;;;;;;11.68;7.65;;;;;;;6.82;78.04;100930.75;2805341;84;21163;-62
2020/12/19 10:49:41;;;;;;;14.03;9.00;;;;;;;6.84;78.04;100935.48;2822780;82;21142;-64
2020/12/19 10:53:44;;;;;;;13.60;9.55;;;;;;;6.89;78.64;100933.45;2867769;83;21177;-64
2020/12/19 10:57:52;;;;;;;14.60;7.58;;;;;;;6.98;77.88;100930.77;2868124;83;21153;-62
2020/12/19 11:02:02;;;;;;;11.28;7.97;;;;;;;7.05;77.95;100928.14;2868144;83;21148;-62
2020/12/19 11:06:08;;;;;;;24.82;16.90;;;;;;;7.11;77.68;100925.14;2849303;83;21156;-60
2020/12/19 11:10:12;;;;;;;41.55;22.87;;;;;;;7.11;77.31;100927.78;2820001;84;21139;-63
2020/12/19 11:14:15;;;;;;;21.82;15.50;;;;;;;7.15;77.39;100929.30;2820457;83;21163;-60
2020/12/19 11:18:19;;;;;;;15.15;12.63;;;;;;;7.15;77.52;100927.15;2840109;83;21165;-60
2020/12/19 11:22:24;;;;;;;12.88;10.38;;;;;;;7.19;77.60;100934.45;2840490;83;21611;-62
2020/12/19 11:26:29;;;;;;;22.60;14.43;;;;;;;7.19;77.79;100923.87;2824917;83;21154;-62
2020/12/19 11:30:36;;;;;;;13.22;11.57;;;;;;;7.24;77.70;100921.31;2820711;84;21583;-60
2020/12/19 11:34:43;;;;;;;19.48;16.60;;;;;;;7.26;77.51;100914.62;2821616;84;21142;-61
2020/12/19 11:38:48;;;;;;;17.07;11.22;;;;;;;7.29;77.54;100916.62;2821815;84;21118;-59
2020/12/19 11:42:55;;;;;;;9.75;8.33;;;;;;;7.36;77.41;100918.91;2821967;83;21154;-61
2020/12/19 11:47:01;;;;;;;12.05;9.35;;;;;;;7.40;77.38;100913.35;2821284;83;21443;-61
2020/12/19 11:51:06;;;;;;;15.13;11.83;;;;;;;7.50;77.01;100917.64;2821431;84;21146;-60
2020/12/19 11:55:10;;;;;;;14.47;10.70;;;;;;;7.55;76.64;100910.27;2821209;84;21133;-61
2020/12/19 11:59:16;;;;;;;21.12;10.13;;;;;;;7.56;76.86;100913.30;2821282;84;21118;-60
2020/12/19 12:03:20;;;;;;;;;;;;;;;7.64;76.48;100905.36;2823845;84;21583;-60
2020/12/19 12:07:28;;;;;;;10.93;7.90;;;;;;;7.71;76.32;100902.25;2821181;84;20159;-61
2020/12/19 12:11:35;;;;;;;14.30;9.10;;;;;;;7.73;75.88;100903.50;2821459;83;21144;-60
2020/12/19 12:15:38;;;;;;;10.28;7.78;;;;;;;7.72;75.19;100900.47;2821303;84;21151;-60
2020/12/19 12:19:43;;;;;;;13.03;7.95;;;;;;;7.70;75.33;100903.20;2822149;83;21148;-62
2020/12/19 12:23:48;;;;;;;14.60;9.95;;;;;;;7.70;75.66;100905.01;2835397;83;21128;-61
2020/12/19 12:27:52;;;;;;;11.18;8.80;;;;;;;7.66;76.08;100904.78;2821419;84;21146;-62
2020/12/19 12:31:55;;;;;;;14.10;9.85;;;;;;;7.71;76.00;100901.41;2820780;84;21161;-61
2020/12/19 12:36:02;;;;;;;9.88;7.85;;;;;;;7.73;75.88;100899.52;2820299;84;21162;-61
2020/12/19 12:40:06;;;;;;;13.32;9.08;;;;;;;7.74;74.99;100897.71;2820153;84;21165;-61
2020/12/19 12:44:09;;;;;;;11.05;7.85;;;;;;;7.68;74.96;100888.36;2843993;83;21177;-61
2020/12/19 12:48:12;;;;;;;11.40;8.98;;;;;;;7.63;74.94;100891.73;2853415;82;21185;-62
2020/12/19 12:52:16;;;;;;;9.98;8.35;;;;;;;7.57;75.40;100893.81;2843441;83;21169;-60
2020/12/19 12:56:23;;;;;;;9.73;7.08;;;;;;;7.55;75.02;100893.06;2915613;81;21164;-60
2020/12/19 13:00:28;;;;;;;13.20;6.85;;;;;;;7.54;75.51;100894.00;2920470;81;21136;-60
2020/12/19 13:04:31;;;;;;;13.75;12.15;;;;;;;7.51;75.10;100888.89;2920288;81;21594;-62
2020/12/19 13:08:35;;;;;;;16.15;11.45;;;;;;;7.51;74.89;100892.00;2872723;81;21147;-62
2020/12/19 13:12:38;;;;;;;19.20;13.08;;;;;;;7.48;75.22;100886.44;2872678;82;21155;-60
2020/12/19 13:16:42;;;;;;;13.43;9.25;;;;;;;7.42;75.62;100882.80;2872929;82;21144;-60
2020/12/19 13:20:46;;;;;;;14.35;9.38;;;;;;;7.34;76.02;100887.22;2872561;82;22451;-60
2020/12/19 13:24:49;;;;;;;14.30;11.03;;;;;;;7.31;75.35;100885.25;2889547;81;21161;-62
2020/12/19 13:28:53;;;;;;;18.55;11.90;;;;;;;7.30;75.26;100893.64;2920092;81;21607;-61
2020/12/19 13:32:56;;;;;;;15.18;10.55;;;;;;;7.29;75.10;100899.88;2920150;81;21117;-60
2020/12/19 13:37:00;;;;;;;13.40;10.13;;;;;;;7.27;75.11;100899.98;2919323;81;21180;-61
2020/12/19 13:41:04;;;;;;;18.62;12.07;;;;;;;7.29;75.01;100904.72;2919333;81;21193;-61
2020/12/19 13:45:10;;;;;;;16.57;14.33;;;;;;;7.25;74.87;100908.45;2792606;84;21171;-62
2020/12/19 13:49:13;;;;;;;13.38;10.60;;;;;;;7.21;75.19;100904.30;2821240;84;21165;-61
2020/12/19 13:53:25;;;;;;;12.82;10.18;;;;;;;7.14;75.59;100913.54;2821500;84;21197;-60
2020/12/19 13:57:33;;;;;;;16.75;12.70;;;;;;;7.06;75.43;100918.39;2821157;84;21172;-60
2020/12/19 14:01:38;;;;;;;13.68;10.68;;;;;;;6.99;75.34;100918.75;2821343;84;21204;-61
2020/12/19 14:05:43;;;;;;;13.68;10.72;;;;;;;6.91;75.46;100924.09;2821534;84;21140;-61
2020/12/19 14:09:46;;;;;;;19.30;15.03;;;;;;;6.91;75.36;100921.45;2821023;84;21485;-61
2020/12/19 14:13:51;;;;;;;23.02;15.08;;;;;;;6.83;75.13;100919.23;2821308;84;21193;-60
2020/12/19 14:17:56;;;;;;;15.08;13.50;;;;;;;6.72;75.29;100922.48;2821345;84;21212;-58
2020/12/19 14:22:02;;;;;;;35.87;27.30;;;;;;;6.67;75.44;100924.05;2784484;84;21137;-60
2020/12/19 14:26:06;;;;;;;48.10;33.45;;;;;;;6.54;75.28;100921.72;2884978;82;21117;-60
2020/12/19 14:30:10;;;;;;;65.60;44.85;;;;;;;6.42;74.54;100921.92;2885040;81;21524;-61
2020/12/19 14:34:16;;;;;;;63.50;40.50;;;;;;;6.35;74.40;100916.56;2884698;82;21693;-61
2020/12/19 14:38:21;;;;;;;71.25;45.43;;;;;;;6.24;73.38;100907.89;2884428;82;21173;-60
2020/12/19 14:42:25;;;;;;;68.52;47.78;;;;;;;6.02;73.13;100909.04;2883239;81;21662;-60
2020/12/19 14:46:28;;;;;;;72.82;50.98;;;;;;;5.90;72.62;100909.19;2772739;84;21132;-60
2020/12/19 14:50:32;;;;;;;76.57;53.17;;;;;;;5.78;72.65;100904.08;2796148;85;21169;-59
2020/12/19 14:54:36;;;;;;;67.17;45.88;;;;;;;5.54;72.12;100911.02;2817706;84;21161;-60
2020/12/19 14:58:41;;;;;;;69.00;48.08;;;;;;;5.32;72.21;100916.98;2817762;84;21165;-60
2020/12/19 15:02:46;;;;;;;67.00;44.10;;;;;;;5.09;72.40;100930.37;2817735;84;21158;-59
2020/12/19 15:06:50;;;;;;;69.42;48.50;;;;;;;4.95;72.16;100942.91;2817566;84;21161;-60
2020/12/19 15:10:57;;;;;;;88.22;59.88;;;;;;;4.71;72.90;100938.33;2817432;84;21762;-60
2020/12/19 15:15:02;;;;;;;85.57;56.80;;;;;;;4.62;73.02;100940.92;2815918;84;21616;-60
2020/12/19 15:19:05;;;;;;;82.20;54.98;;;;;;;4.45;72.88;100936.89;2817591;84;21193;-58
2020/12/19 15:23:09;;;;;;;82.92;52.90;;;;;;;4.26;73.20;100936.41;2817407;84;21161;-60
2020/12/19 15:27:14;;;;;;;74.58;48.60;;;;;;;4.09;73.60;100939.33;2863460;83;21185;-60
2020/12/19 15:31:17;;;;;;;71.12;51.20;;;;;;;3.97;73.90;100935.94;2865578;83;21176;-59
2020/12/19 15:35:21;;;;;;;69.87;47.55;;;;;;;3.87;74.23;100938.11;2865884;83;21137;-59
2020/12/19 15:39:24;;;;;;;68.37;47.45;;;;;;;3.86;74.34;100937.24;2819549;83;21155;-58
2020/12/19 15:43:29;;;;;;;73.57;47.10;;;;;;;3.79;74.30;100937.58;2821330;84;21162;-59
2020/12/19 15:47:33;;;;;;;75.50;46.55;;;;;;;3.73;74.37;100926.00;2834741;84;21178;-59
2020/12/19 15:51:40;;;;;;;65.97;48.97;;;;;;;3.62;74.66;100925.15;2834638;84;21142;-59
2020/12/19 15:55:44;;;;;;;69.10;44.60;;;;;;;3.57;74.84;100928.84;2834841;84;21415;-58
2020/12/19 15:59:47;;;;;;;74.45;51.70;;;;;;;3.52;75.02;100927.31;2834743;84;21178;-58
2020/12/19 16:03:51;;;;;;;196.68;114.88;;;;;;;3.46;75.01;100920.53;2834595;84;21213;-59
2020/12/19 16:07:56;;;;;;;116.40;70.15;;;;;;;3.46;75.40;100917.06;2834570;82;21142;-59
2020/12/19 16:12:00;;;;;;;106.00;64.17;;;;;;;3.28;74.85;100916.42;2834320;84;21161;-59
2020/12/19 16:16:03;;;;;;;84.58;58.80;;;;;;;3.27;75.55;100909.45;2834737;82;21194;-61
2020/12/19 16:20:07;;;;;;;85.00;56.15;;;;;;;3.24;76.03;100913.53;2834679;84;21177;-58
2020/12/19 16:24:11;;;;;;;82.57;53.48;;;;;;;3.17;76.34;100912.09;2834669;84;21166;-62
2020/12/19 16:28:17;;;;;;;58.87;39.30;;;;;;;3.18;77.27;100916.42;2834655;84;21174;-59
2020/12/19 16:32:20;;;;;;;79.40;44.42;;;;;;;3.18;77.74;100926.07;2834168;84;21185;-60
2020/12/19 16:36:29;;;;;;;80.35;45.43;;;;;;;3.27;78.14;100938.38;2834625;84;21157;-60
2020/12/19 16:40:34;;;;;;;79.53;51.53;;;;;;;3.39;78.04;100934.86;2834478;84;21142;-60
2020/12/19 16:44:38;;;;;;;80.28;53.52;;;;;;;3.46;77.34;100932.84;2835117;81;21191;-62
2020/12/19 16:48:43;;;;;;;87.95;56.48;;;;;;;3.48;77.22;100933.16;2817558;84;21165;-61
2020/12/19 16:52:48;;;;;;;87.57;52.90;;;;;;;3.54;76.53;100933.36;2817634;84;21161;-62
2020/12/19 16:56:51;;;;;;;84.52;52.67;;;;;;;3.41;75.94;100915.93;2817064;83;22167;-62
2020/12/19 17:00:56;;;;;;;62.08;40.03;;;;;;;3.46;76.00;100931.53;2817137;83;21166;-62
2020/12/19 17:05:00;;;;;;;75.45;44.15;;;;;;;3.40;76.70;100932.63;2818262;83;21173;-60
2020/12/19 17:09:09;;;;;;;59.90;40.95;;;;;;;3.20;77.68;100932.98;2826928;83;21173;-62
2020/12/19 17:13:17;;;;;;;52.83;32.25;;;;;;;2.98;78.61;100940.87;2816802;84;21165;-59
2020/12/19 17:17:22;;;;;;;44.88;30.10;;;;;;;2.90;80.33;100931.97;2817297;84;21133;-61
2020/12/19 17:25:43;;;;;;;54.60;38.10;;;;;;;2.92;81.78;100930.14;3087036;76;22493;-63
2020/12/19 17:29:47;;;;;;;42.35;29.12;;;;;;;2.82;81.68;100931.43;3013849;79;21096;-60
2020/12/19 17:33:52;;;;;;;53.58;37.00;;;;;;;2.80;82.49;100934.58;2965287;79;21132;-59
2020/12/19 17:37:55;;;;;;;46.20;37.08;;;;;;;2.70;81.90;100938.86;2960603;79;21112;-60
2020/12/19 17:41:59;;;;;;;42.05;32.35;;;;;;;2.63;82.32;100932.58;2960612;79;21152;-63
2020/12/19 17:46:02;;;;;;;56.83;31.52;;;;;;;2.61;83.16;100928.72;2960390;79;21144;-61
2020/12/19 17:50:06;;;;;;;79.72;46.73;;;;;;;2.69;83.65;100938.46;2960623;80;21152;-60
2020/12/19 17:54:12;;;;;;;87.72;49.93;;;;;;;2.74;83.51;100941.36;2977520;78;21157;-61
2020/12/19 17:58:15;;;;;;;67.17;41.50;;;;;;;2.74;83.60;100942.23;3051209;78;21161;-61
2020/12/19 18:02:18;;;;;;;86.30;46.05;;;;;;;2.74;84.03;100941.36;3051220;78;21121;-61
2020/12/19 18:06:22;;;;;;;62.30;39.23;;;;;;;2.81;84.06;100937.12;3050937;78;21094;-60
2020/12/19 18:10:26;;;;;;;127.12;71.07;;;;;;;2.81;83.86;100938.44;3051002;78;21133;-63
2020/12/19 18:14:30;;;;;;;125.80;73.35;;;;;;;2.80;83.99;100941.98;3050957;78;21157;-62
2020/12/19 18:18:34;;;;;;;78.30;40.10;;;;;;;2.79;84.34;100950.78;3051098;78;21102;-62
2020/12/19 18:22:37;;;;;;;74.25;48.98;;;;;;;2.83;84.44;100950.22;3051126;77;21153;-57
2020/12/19 18:26:41;;;;;;;50.85;31.12;;;;;;;2.84;84.43;100951.93;3051561;78;21125;-61
2020/12/19 18:30:47;;;;;;;41.18;29.00;;;;;;;2.84;84.41;100944.05;3050805;77;21129;-64
2020/12/19 18:34:51;;;;;;;40.00;26.50;;;;;;;2.84;84.41;100946.67;3050780;78;21161;-64
2020/12/19 18:38:56;;;;;;;35.43;24.05;;;;;;;2.80;84.67;100949.88;3048131;78;21130;-64
2020/12/19 18:42:59;;;;;;;122.92;71.90;;;;;;;2.88;84.71;100959.25;3049871;78;22255;-63
2020/12/19 18:47:07;;;;;;;166.77;95.05;;;;;;;2.98;84.36;100956.64;3047730;78;21157;-62
2020/12/19 18:51:11;;;;;;;126.33;69.05;;;;;;;3.00;83.74;100954.36;3050014;77;21578;-62
2020/12/19 18:55:15;;;;;;;108.97;55.98;;;;;;;3.00;83.47;100958.30;3050010;77;21165;-65
2020/12/19 18:59:19;;;;;;;75.90;41.92;;;;;;;2.94;83.55;100965.57;3050163;78;21149;-65
2020/12/19 19:03:22;;;;;;;106.63;72.35;;;;;;;2.88;83.57;100960.09;3026885;77;21197;-64
2020/12/19 19:07:27;;;;;;;115.32;76.22;;;;;;;2.78;83.59;100961.38;2986524;77;21128;-62
2020/12/19 19:11:31;;;;;;;80.00;47.53;;;;;;;2.71;84.09;100968.63;2918430;79;21570;-62
2020/12/19 19:15:34;;;;;;;89.47;58.17;;;;;;;2.66;84.44;100961.39;2875196;80;21580;-62
2020/12/19 19:19:38;;;;;;;79.53;53.40;;;;;;;2.60;84.88;100957.22;2862351;80;21160;-62
2020/12/19 19:23:41;;;;;;;80.75;45.03;;;;;;;2.61;84.94;100960.23;2863081;80;21721;-62
2020/12/19 19:27:46;;;;;;;80.10;48.98;;;;;;;2.64;84.96;100962.75;2865038;82;21148;-62
2020/12/19 19:31:50;;;;;;;61.55;37.40;;;;;;;2.63;84.83;100963.66;2899898;82;21153;-63